createdAt,value
2018-11-12T00:00:31.866Z,988.95
2018-11-12T00:01:32.001Z,988.91
2018-11-12T00:02:32.136Z,988.91
2018-11-12T00:03:32.268Z,988.97
2018-11-12T00:04:32.401Z,989.00
2018-11-12T00:05:32.535Z,988.98
2018-11-12T00:06:32.668Z,989.04
2018-11-12T00:07:32.804Z,989.04
2018-11-12T00:08:32.938Z,989.06
2018-11-12T00:09:33.077Z,989.03
2018-11-12T00:10:33.208Z,989.03
2018-11-12T00:11:33.343Z,989.02
2018-11-12T00:12:33.484Z,989.03
2018-11-12T00:13:33.623Z,989.04
2018-11-12T00:14:33.753Z,989.02
2018-11-12T00:15:33.897Z,988.97
2018-11-12T00:16:34.049Z,988.96
2018-11-12T00:17:34.185Z,988.92
2018-11-12T00:18:34.339Z,988.89
2018-11-12T00:19:34.471Z,988.87
2018-11-12T00:20:34.608Z,988.88
2018-11-12T00:21:34.747Z,988.87
2018-11-12T00:22:34.885Z,988.86
2018-11-12T00:23:35.018Z,988.83
2018-11-12T00:24:35.158Z,988.82
2018-11-12T00:25:35.296Z,988.84
2018-11-12T00:26:35.441Z,988.83
2018-11-12T00:27:35.575Z,988.82
2018-11-12T00:28:35.707Z,988.84
2018-11-12T00:29:35.834Z,988.86
2018-11-12T00:30:35.969Z,988.93
2018-11-12T00:31:36.116Z,988.90
2018-11-12T00:32:36.250Z,988.90
2018-11-12T00:33:36.384Z,988.86
2018-11-12T00:34:36.520Z,988.88
2018-11-12T00:35:36.662Z,988.85
2018-11-12T00:36:36.798Z,988.91
2018-11-12T00:37:36.931Z,988.96
2018-11-12T00:38:37.065Z,988.97
2018-11-12T00:39:37.203Z,988.99
2018-11-12T00:40:37.332Z,988.97
2018-11-12T00:41:37.466Z,988.95
2018-11-12T00:42:37.604Z,989.01
2018-11-12T00:43:37.738Z,988.99
2018-11-12T00:44:37.905Z,989.01
2018-11-12T00:45:38.039Z,989.04
2018-11-12T00:46:38.173Z,989.06
2018-11-12T00:47:38.305Z,989.00
2018-11-12T00:48:38.439Z,989.05
2018-11-12T00:49:38.579Z,988.97
2018-11-12T00:50:38.708Z,989.03
2018-11-12T00:51:38.846Z,989.05
2018-11-12T00:52:38.983Z,989.04
2018-11-12T00:53:39.181Z,989.06
2018-11-12T00:54:39.190Z,989.05
2018-11-12T00:55:39.323Z,989.00
2018-11-12T00:56:39.452Z,988.97
2018-11-12T00:57:39.590Z,988.97
2018-11-12T00:58:39.728Z,988.94
2018-11-12T00:59:39.860Z,988.97
2018-11-12T01:00:39.993Z,989.00
2018-11-12T01:01:40.127Z,989.03
2018-11-12T01:02:40.263Z,989.01
2018-11-12T01:03:40.395Z,989.03
2018-11-12T01:04:40.526Z,989.09
2018-11-12T01:05:40.664Z,989.10
2018-11-12T01:06:40.794Z,989.14
2018-11-12T01:07:40.929Z,989.14
2018-11-12T01:08:41.071Z,989.12
2018-11-12T01:09:41.195Z,989.13
2018-11-12T01:10:41.395Z,989.12
2018-11-12T01:11:41.406Z,989.11
2018-11-12T01:12:41.543Z,989.14
2018-11-12T01:13:41.677Z,989.21
2018-11-12T01:14:41.819Z,989.21
2018-11-12T01:15:41.949Z,989.24
2018-11-12T01:16:42.087Z,989.27
2018-11-12T01:17:42.212Z,989.32
2018-11-12T01:18:42.348Z,989.29
2018-11-12T01:19:42.478Z,989.27
2018-11-12T01:20:42.618Z,989.27
2018-11-12T01:21:42.754Z,989.26
2018-11-12T01:22:42.890Z,989.27
2018-11-12T01:23:43.018Z,989.30
2018-11-12T01:24:43.158Z,989.29
2018-11-12T01:25:43.768Z,989.28
2018-11-12T01:26:43.419Z,989.26
2018-11-12T01:27:43.673Z,989.28
2018-11-12T01:28:43.677Z,989.26
2018-11-12T01:29:43.815Z,989.29
2018-11-12T01:30:43.968Z,989.24
2018-11-12T01:31:44.110Z,989.24
2018-11-12T01:32:44.757Z,989.20
2018-11-12T01:35:16.503Z,989.19
2018-11-12T01:36:16.629Z,989.17
2018-11-12T01:37:16.762Z,989.17
2018-11-12T01:38:16.945Z,989.10
2018-11-12T01:39:17.054Z,989.07
2018-11-12T01:40:17.191Z,989.12
2018-11-12T01:41:17.324Z,989.13
2018-11-12T01:42:17.518Z,989.09
2018-11-12T01:43:17.627Z,989.10
2018-11-12T01:44:17.762Z,989.14
2018-11-12T01:45:17.966Z,989.11
2018-11-12T01:46:17.991Z,989.16
2018-11-12T01:47:18.123Z,989.13
2018-11-12T01:48:18.267Z,989.13
2018-11-12T01:49:18.397Z,989.10
2018-11-12T01:50:18.571Z,989.12
2018-11-12T01:51:18.698Z,989.08
2018-11-12T01:52:18.837Z,989.09
2018-11-12T01:53:18.970Z,989.06
2018-11-12T01:54:19.109Z,989.08
2018-11-12T01:55:19.234Z,989.07
2018-11-12T01:56:19.374Z,989.04
2018-11-12T01:57:19.506Z,989.04
2018-11-12T01:58:19.675Z,989.09
2018-11-12T01:59:19.802Z,989.08
2018-11-12T02:00:19.940Z,989.03
2018-11-12T02:01:20.070Z,989.08
2018-11-12T02:02:20.217Z,989.08
2018-11-12T02:03:20.345Z,989.08
2018-11-12T02:04:20.517Z,989.06
2018-11-12T02:05:20.650Z,989.07
2018-11-12T02:06:20.881Z,989.06
2018-11-12T02:07:20.946Z,989.06
2018-11-12T02:08:21.080Z,989.01
2018-11-12T02:09:21.243Z,989.06
2018-11-12T02:10:21.351Z,989.06
2018-11-12T02:11:21.488Z,989.04
2018-11-12T02:12:21.624Z,989.01
2018-11-12T02:13:21.780Z,989.03
2018-11-12T02:14:21.971Z,989.02
2018-11-12T02:15:22.045Z,989.04
2018-11-12T02:16:22.219Z,989.06
2018-11-12T02:17:22.352Z,989.06
2018-11-12T02:18:22.483Z,989.08
2018-11-12T02:19:22.617Z,989.08
2018-11-12T02:20:22.769Z,989.10
2018-11-12T02:21:22.905Z,989.12
2018-11-12T02:22:23.089Z,989.09
2018-11-12T02:23:23.181Z,989.13
2018-11-12T02:24:23.315Z,989.08
2018-11-12T02:25:23.454Z,989.10
2018-11-12T02:26:23.696Z,989.09
2018-11-12T02:27:23.701Z,989.11
2018-11-12T02:28:23.836Z,989.08
2018-11-12T02:29:23.966Z,989.06
2018-11-12T02:30:24.152Z,989.04
2018-11-12T02:31:24.330Z,989.00
2018-11-12T02:32:24.401Z,988.99
2018-11-12T02:33:24.666Z,988.96
2018-11-12T02:34:24.709Z,988.94
2018-11-12T02:35:24.841Z,988.86
2018-11-12T02:36:24.977Z,988.83
2018-11-12T02:37:25.107Z,988.84
2018-11-12T02:38:25.262Z,988.89
2018-11-12T02:39:25.392Z,988.96
2018-11-12T02:40:25.532Z,989.03
2018-11-12T02:41:25.668Z,988.98
2018-11-12T02:42:25.833Z,989.01
2018-11-12T02:43:25.958Z,988.96
2018-11-12T02:44:26.098Z,988.96
2018-11-12T02:45:26.232Z,988.93
2018-11-12T02:46:26.395Z,988.92
2018-11-12T02:47:26.521Z,988.91
2018-11-12T02:48:26.661Z,988.95
2018-11-12T02:49:26.794Z,989.00
2018-11-12T02:50:26.948Z,989.03
2018-11-12T02:51:27.082Z,989.08
2018-11-12T02:52:27.221Z,989.06
2018-11-12T02:53:27.379Z,989.02
2018-11-12T02:54:27.513Z,988.99
2018-11-12T02:55:27.647Z,988.96
2018-11-12T02:56:27.801Z,988.91
2018-11-12T02:57:28.002Z,988.89
2018-11-12T02:58:28.066Z,988.86
2018-11-12T02:59:28.202Z,988.84
2018-11-12T03:00:28.336Z,988.85
2018-11-12T03:01:28.466Z,988.86
2018-11-12T03:02:28.618Z,988.79
2018-11-12T03:03:28.750Z,988.78
2018-11-12T03:04:28.886Z,988.79
2018-11-12T03:05:29.042Z,988.80
2018-11-12T03:06:29.175Z,988.78
2018-11-12T03:07:30.010Z,988.82
2018-11-12T03:08:29.423Z,988.81
2018-11-12T03:09:29.552Z,988.89
2018-11-12T03:10:29.694Z,988.90
2018-11-12T03:11:29.825Z,988.84
2018-11-12T03:12:29.994Z,988.89
2018-11-12T03:13:30.117Z,988.84
2018-11-12T03:14:30.253Z,988.81
2018-11-12T03:15:30.387Z,988.84
2018-11-12T03:16:30.540Z,988.85
2018-11-12T03:17:30.674Z,988.82
2018-11-12T03:18:30.809Z,988.82
2018-11-12T03:19:30.936Z,988.86
2018-11-12T03:20:31.097Z,988.91
2018-11-12T03:21:31.229Z,988.89
2018-11-12T03:22:31.366Z,988.83
2018-11-12T03:23:31.509Z,988.84
2018-11-12T03:24:31.640Z,988.83
2018-11-12T03:25:31.768Z,988.81
2018-11-12T03:26:31.902Z,988.81
2018-11-12T03:27:32.112Z,988.75
2018-11-12T03:28:32.180Z,988.73
2018-11-12T03:29:32.320Z,988.79
2018-11-12T03:30:32.527Z,988.75
2018-11-12T03:31:32.597Z,988.76
2018-11-12T03:32:32.727Z,988.74
2018-11-12T03:33:32.873Z,988.75
2018-11-12T03:34:32.998Z,988.70
2018-11-12T03:35:33.135Z,988.69
2018-11-12T03:36:33.288Z,988.68
2018-11-12T03:37:33.420Z,988.69
2018-11-12T03:38:33.555Z,988.72
2018-11-12T03:39:33.752Z,988.75
2018-11-12T03:40:33.827Z,988.73
2018-11-12T03:41:33.969Z,988.72
2018-11-12T03:42:58.921Z,988.69
2018-11-12T03:43:59.055Z,988.66
2018-11-12T03:44:59.208Z,988.60
2018-11-12T03:45:59.343Z,988.64
2018-11-12T03:46:59.498Z,988.64
2018-11-12T03:47:59.631Z,988.66
2018-11-12T03:48:59.783Z,988.60
2018-11-12T03:49:59.908Z,988.58
2018-11-12T03:51:00.046Z,988.62
2018-11-12T03:52:00.235Z,988.61
2018-11-12T03:53:00.367Z,988.66
2018-11-12T03:54:00.500Z,988.72
2018-11-12T03:55:00.636Z,988.76
2018-11-12T03:56:00.778Z,988.72
2018-11-12T03:57:00.911Z,988.70
2018-11-12T03:58:01.045Z,988.68
2018-11-12T03:59:01.184Z,988.73
2018-11-12T04:00:01.356Z,988.71
2018-11-12T04:01:01.480Z,988.70
2018-11-12T04:02:02.101Z,988.70
2018-11-12T04:03:01.778Z,988.72
2018-11-12T04:04:01.912Z,988.76
2018-11-12T04:05:02.583Z,988.75
2018-11-12T04:06:02.272Z,988.76
2018-11-12T04:07:02.397Z,988.77
2018-11-12T04:08:02.534Z,988.78
2018-11-12T04:09:02.692Z,988.78
2018-11-12T04:10:02.819Z,988.79
2018-11-12T04:11:02.949Z,988.73
2018-11-12T04:12:03.087Z,988.78
2018-11-12T04:13:03.223Z,988.76
2018-11-12T04:14:03.356Z,988.72
2018-11-12T04:15:03.490Z,988.72
2018-11-12T04:16:03.621Z,988.66
2018-11-12T04:17:03.776Z,988.65
2018-11-12T04:18:03.910Z,988.64
2018-11-12T04:19:04.044Z,988.63
2018-11-12T04:20:04.201Z,988.60
2018-11-12T04:21:04.330Z,988.63
2018-11-12T04:22:04.467Z,988.57
2018-11-12T04:23:04.603Z,988.60
2018-11-12T04:24:04.751Z,988.54
2018-11-12T04:25:04.881Z,988.56
2018-11-12T04:26:05.016Z,988.57
2018-11-12T04:27:05.153Z,988.57
2018-11-12T04:28:05.290Z,988.54
2018-11-12T04:29:05.419Z,988.56
2018-11-12T04:30:05.547Z,988.55
2018-11-12T04:31:05.682Z,988.56
2018-11-12T04:32:05.855Z,988.53
2018-11-12T04:33:05.987Z,988.58
2018-11-12T04:34:06.119Z,988.59
2018-11-12T04:35:06.252Z,988.59
2018-11-12T04:36:06.399Z,988.59
2018-11-12T04:37:06.531Z,988.60
2018-11-12T04:38:06.667Z,988.61
2018-11-12T04:39:06.799Z,988.68
2018-11-12T04:40:06.959Z,988.64
2018-11-12T04:41:07.095Z,988.65
2018-11-12T04:42:07.228Z,988.67
2018-11-12T04:43:07.859Z,988.67
2018-11-12T04:44:07.525Z,988.67
2018-11-12T04:45:07.653Z,988.67
2018-11-12T04:46:08.354Z,988.66
2018-11-12T04:47:07.913Z,988.63
2018-11-12T04:48:08.045Z,988.60
2018-11-12T04:49:08.175Z,988.60
2018-11-12T04:50:08.338Z,988.57
2018-11-12T04:51:08.465Z,988.58
2018-11-12T04:52:08.600Z,988.57
2018-11-12T04:53:08.734Z,988.50
2018-11-12T04:54:08.906Z,988.56
2018-11-12T04:55:09.118Z,988.56
2018-11-12T04:56:09.152Z,988.58
2018-11-12T04:57:09.302Z,988.60
2018-11-12T04:58:09.433Z,988.67
2018-11-12T04:59:09.634Z,988.67
2018-11-12T05:00:09.720Z,988.67
2018-11-12T05:01:09.849Z,988.67
2018-11-12T05:02:10.061Z,988.63
2018-11-12T05:03:10.147Z,988.61
2018-11-12T05:04:10.374Z,988.58
2018-11-12T05:05:10.383Z,988.62
2018-11-12T05:06:10.522Z,988.62
2018-11-12T05:07:10.691Z,988.68
2018-11-12T05:08:10.821Z,988.71
2018-11-12T05:09:10.962Z,988.68
2018-11-12T05:10:11.095Z,988.72
2018-11-12T05:11:11.246Z,988.72
2018-11-12T05:12:11.378Z,988.69
2018-11-12T05:13:11.514Z,988.72
2018-11-12T05:14:11.650Z,988.72
2018-11-12T05:15:11.817Z,988.73
2018-11-12T05:16:11.948Z,988.79
2018-11-12T05:17:12.088Z,988.82
2018-11-12T05:18:12.271Z,988.84
2018-11-12T05:19:12.401Z,988.85
2018-11-12T05:20:12.552Z,988.90
2018-11-12T05:21:12.690Z,988.88
2018-11-12T05:22:12.822Z,988.90
2018-11-12T05:23:12.957Z,988.93
2018-11-12T05:24:13.117Z,988.87
2018-11-12T05:25:13.252Z,988.81
2018-11-12T05:26:13.387Z,988.80
2018-11-12T05:27:13.561Z,988.84
2018-11-12T05:28:13.684Z,988.86
2018-11-12T05:29:13.824Z,988.87
2018-11-12T05:30:14.580Z,988.90
2018-11-12T05:31:14.112Z,988.85
2018-11-12T05:32:14.249Z,988.88
2018-11-12T05:33:14.382Z,988.89
2018-11-12T05:34:14.515Z,988.92
2018-11-12T05:35:14.690Z,988.85
2018-11-12T05:36:14.836Z,988.83
2018-11-12T05:37:14.979Z,988.86
2018-11-12T05:38:15.148Z,988.79
2018-11-12T05:39:15.256Z,988.79
2018-11-12T05:40:15.382Z,988.80
2018-11-12T05:41:15.519Z,988.79
2018-11-12T05:42:15.663Z,988.75
2018-11-12T05:43:15.809Z,988.74
2018-11-12T05:44:15.932Z,988.69
2018-11-12T05:45:16.068Z,988.69
2018-11-12T05:46:16.203Z,988.68
2018-11-12T05:47:16.382Z,988.64
2018-11-12T05:48:16.519Z,988.65
2018-11-12T05:49:16.659Z,988.62
2018-11-12T05:50:16.792Z,988.60
2018-11-12T05:51:16.942Z,988.59
2018-11-12T05:52:17.070Z,988.59
2018-11-12T05:53:17.205Z,988.55
2018-11-12T05:54:17.371Z,988.58
2018-11-12T05:55:17.503Z,988.57
2018-11-12T05:56:17.640Z,988.53
2018-11-12T05:57:17.779Z,988.49
2018-11-12T05:58:17.925Z,988.46
2018-11-12T05:59:18.059Z,988.44
2018-11-12T06:00:18.191Z,988.47
2018-11-12T06:01:18.341Z,988.51
2018-11-12T06:02:18.477Z,988.55
2018-11-12T06:03:18.610Z,988.59
2018-11-12T06:04:18.774Z,988.61
2018-11-12T06:05:18.899Z,988.54
2018-11-12T06:06:19.031Z,988.56
2018-11-12T06:07:19.167Z,988.55
2018-11-12T06:08:19.321Z,988.53
2018-11-12T06:09:19.456Z,988.45
2018-11-12T06:10:19.589Z,988.48
2018-11-12T06:11:19.745Z,988.52
2018-11-12T06:12:19.881Z,988.55
2018-11-12T06:13:20.013Z,988.58
2018-11-12T06:14:21.098Z,988.55
2018-11-12T06:15:20.326Z,988.59
2018-11-12T06:16:20.453Z,988.57
2018-11-12T06:17:20.614Z,988.64
2018-11-12T06:18:20.803Z,988.62
2018-11-12T06:19:20.811Z,988.63
2018-11-12T06:20:20.947Z,988.69
2018-11-12T06:21:21.126Z,988.68
2018-11-12T06:22:21.256Z,988.66
2018-11-12T06:23:21.387Z,988.62
2018-11-12T06:24:21.521Z,988.62
2018-11-12T06:25:21.692Z,988.63
2018-11-12T06:26:21.828Z,988.65
2018-11-12T06:27:21.955Z,988.63
2018-11-12T06:28:22.110Z,988.66
2018-11-12T06:29:22.268Z,988.67
2018-11-12T06:30:22.416Z,988.68
2018-11-12T06:31:22.581Z,988.68
2018-11-12T06:32:22.711Z,988.70
2018-11-12T06:33:22.845Z,988.71
2018-11-12T06:34:23.015Z,988.67
2018-11-12T06:35:23.146Z,988.70
2018-11-12T06:36:23.276Z,988.71
2018-11-12T06:37:23.409Z,988.67
2018-11-12T06:38:23.570Z,988.69
2018-11-12T06:39:23.698Z,988.71
2018-11-12T06:40:23.832Z,988.70
2018-11-12T06:41:23.968Z,988.64
2018-11-12T06:42:24.163Z,988.70
2018-11-12T06:43:24.242Z,988.74
2018-11-12T06:44:24.390Z,988.72
2018-11-12T06:45:24.517Z,988.72
2018-11-12T06:46:24.766Z,988.73
2018-11-12T06:47:24.794Z,988.73
2018-11-12T06:48:24.927Z,988.77
2018-11-12T06:49:25.061Z,988.80
2018-11-12T06:50:25.201Z,988.82
2018-11-12T06:51:25.333Z,988.84
2018-11-12T06:52:25.485Z,988.86
2018-11-12T06:53:25.691Z,988.84
2018-11-12T06:54:25.757Z,988.84
2018-11-12T06:55:25.909Z,988.87
2018-11-12T06:56:26.041Z,988.87
2018-11-12T06:57:26.180Z,988.89
2018-11-12T06:58:26.322Z,988.87
2018-11-12T06:59:26.527Z,988.87
2018-11-12T07:00:26.562Z,988.85
2018-11-12T07:01:26.695Z,988.83
2018-11-12T07:02:26.833Z,988.80
2018-11-12T07:03:26.975Z,988.80
2018-11-12T07:04:27.111Z,988.79
2018-11-12T07:05:27.242Z,988.76
2018-11-12T07:06:27.460Z,988.74
2018-11-12T07:07:27.509Z,988.69
2018-11-12T07:08:27.641Z,988.73
2018-11-12T07:09:27.776Z,988.73
2018-11-12T07:10:27.912Z,988.68
2018-11-12T07:11:28.135Z,988.68
2018-11-12T07:12:28.161Z,988.60
2018-11-12T07:13:28.300Z,988.70
2018-11-12T07:14:28.433Z,988.70
2018-11-12T07:15:28.594Z,988.72
2018-11-12T07:16:28.727Z,988.74
2018-11-12T07:17:28.859Z,988.73
2018-11-12T07:18:28.991Z,988.78
2018-11-12T07:19:29.210Z,988.77
2018-11-12T07:20:29.225Z,988.80
2018-11-12T07:21:29.353Z,988.82
2018-11-12T07:22:29.489Z,988.82
2018-11-12T07:23:29.639Z,988.90
2018-11-12T07:24:29.843Z,988.89
2018-11-12T07:25:29.844Z,988.91
2018-11-12T07:26:29.980Z,988.96
2018-11-12T07:27:30.113Z,988.96
2018-11-12T07:28:30.255Z,988.97
2018-11-12T07:29:30.403Z,988.99
2018-11-12T07:30:30.540Z,988.97
2018-11-12T07:31:30.667Z,989.00
2018-11-12T07:32:30.797Z,988.98
2018-11-12T07:33:30.932Z,988.99
2018-11-12T07:34:31.096Z,989.05
2018-11-12T07:35:31.219Z,989.07
2018-11-12T07:36:31.353Z,989.07
2018-11-12T07:37:31.510Z,989.11
2018-11-12T07:38:31.644Z,989.08
2018-11-12T07:39:31.776Z,989.08
2018-11-12T07:40:31.915Z,989.06
2018-11-12T07:41:32.085Z,989.10
2018-11-12T07:42:32.211Z,989.08
2018-11-12T07:43:32.352Z,989.13
2018-11-12T07:44:32.490Z,989.09
2018-11-12T07:45:32.654Z,989.09
2018-11-12T07:46:32.789Z,989.10
2018-11-12T07:47:32.945Z,989.10
2018-11-12T07:48:33.127Z,989.10
2018-11-12T07:49:33.224Z,989.11
2018-11-12T07:50:33.393Z,989.11
2018-11-12T07:51:33.522Z,989.09
2018-11-12T07:52:33.659Z,989.12
2018-11-12T07:53:33.842Z,989.15
2018-11-12T07:54:34.008Z,989.10
2018-11-12T07:55:34.234Z,989.09
2018-11-12T07:56:34.321Z,989.12
2018-11-12T07:57:34.457Z,989.11
2018-11-12T07:58:34.590Z,989.10
2018-11-12T07:59:34.728Z,989.09
2018-11-12T08:00:34.858Z,989.03
2018-11-12T08:01:34.989Z,989.10
2018-11-12T08:02:35.124Z,989.11
2018-11-12T08:03:35.319Z,989.13
2018-11-12T08:04:35.397Z,989.15
2018-11-12T08:05:35.535Z,989.13
2018-11-12T08:06:35.669Z,989.13
2018-11-12T08:07:35.796Z,989.11
2018-11-12T08:08:35.940Z,989.16
2018-11-12T08:09:36.134Z,989.13
2018-11-12T08:10:36.206Z,989.11
2018-11-12T08:11:37.302Z,989.08
2018-11-12T08:14:08.831Z,989.10
2018-11-12T08:15:08.963Z,989.18
2018-11-12T08:16:09.099Z,989.13
2018-11-12T08:17:09.241Z,989.16
2018-11-12T08:18:09.374Z,989.15
2018-11-12T08:19:09.511Z,989.13
2018-11-12T08:20:09.652Z,989.13
2018-11-12T08:21:09.787Z,989.13
2018-11-12T08:22:09.930Z,989.17
2018-11-12T08:23:10.068Z,989.22
2018-11-12T08:24:10.287Z,989.24
2018-11-12T08:25:10.343Z,989.30
2018-11-12T08:26:10.489Z,989.27
2018-11-12T08:27:10.683Z,989.22
2018-11-12T08:28:10.753Z,989.25
2018-11-12T08:29:10.892Z,989.22
2018-11-12T08:30:11.115Z,989.29
2018-11-12T08:31:11.158Z,989.32
2018-11-12T08:32:11.294Z,989.29
2018-11-12T08:33:11.504Z,989.28
2018-11-12T08:34:11.554Z,989.19
2018-11-12T08:35:11.711Z,989.22
2018-11-12T08:36:11.846Z,989.17
2018-11-12T08:37:11.973Z,989.19
2018-11-12T08:38:12.132Z,989.20
2018-11-12T08:39:12.282Z,989.26
2018-11-12T08:40:12.419Z,989.31
2018-11-12T08:41:12.624Z,989.32
2018-11-12T08:42:12.678Z,989.31
2018-11-12T08:43:12.823Z,989.27
2018-11-12T08:44:12.959Z,989.36
2018-11-12T08:45:13.093Z,989.30
2018-11-12T08:46:13.267Z,989.32
2018-11-12T08:47:13.368Z,989.28
2018-11-12T08:48:13.504Z,989.27
2018-11-12T08:49:13.733Z,989.27
2018-11-12T08:50:13.775Z,989.29
2018-11-12T08:51:13.901Z,989.30
2018-11-12T08:52:14.071Z,989.32
2018-11-12T08:53:14.175Z,989.30
2018-11-12T08:54:14.341Z,989.37
2018-11-12T08:55:14.492Z,989.33
2018-11-12T08:56:14.583Z,989.32
2018-11-12T08:57:14.718Z,989.32
2018-11-12T08:58:15.627Z,989.36
2018-11-12T08:59:15.077Z,989.31
2018-11-12T09:00:15.123Z,989.28
2018-11-12T09:01:15.255Z,989.28
2018-11-12T09:02:15.392Z,989.29
2018-11-12T09:03:15.524Z,989.28
2018-11-12T09:04:15.740Z,989.28
2018-11-12T09:05:15.794Z,989.28
2018-11-12T09:06:15.928Z,989.29
2018-11-12T09:07:16.381Z,989.32
2018-11-12T09:08:16.209Z,989.31
2018-11-12T09:09:16.358Z,989.31
2018-11-12T09:10:16.606Z,989.33
2018-11-12T09:11:16.632Z,989.30
2018-11-12T09:12:16.769Z,989.29
2018-11-12T09:13:16.903Z,989.28
2018-11-12T09:14:17.038Z,989.26
2018-11-12T09:15:17.177Z,989.26
2018-11-12T09:16:17.308Z,989.25
2018-11-12T09:17:17.443Z,989.25
2018-11-12T09:18:17.578Z,989.27
2018-11-12T09:19:17.717Z,989.21
2018-11-12T09:20:17.848Z,989.22
2018-11-12T09:21:17.979Z,989.20
2018-11-12T09:22:18.118Z,989.21
2018-11-12T09:23:18.282Z,989.18
2018-11-12T09:24:18.490Z,989.18
2018-11-12T09:25:18.536Z,989.18
2018-11-12T09:26:18.671Z,989.16
2018-11-12T09:27:18.806Z,989.20
2018-11-12T09:28:18.942Z,989.25
2018-11-12T09:29:19.079Z,989.30
2018-11-12T09:30:19.208Z,989.31
2018-11-12T09:31:20.463Z,989.32
2018-11-12T09:32:19.481Z,989.32
2018-11-12T09:33:19.615Z,989.26
2018-11-12T09:34:19.749Z,989.22
2018-11-12T09:35:19.889Z,989.21
2018-11-12T09:36:20.048Z,989.26
2018-11-12T09:37:20.203Z,989.27
